Time;durP1;ratioP1;P1;durP2;ratioP2;P2;SDS_P1;SDS_P2;PMS_P1;PMS_P2;Temp;Humidity;BMP_temperature;BMP_pressure;BME280_temperature;BME280_humidity;BME280_pressure;Samples;Min_cycle;Max_cycle;Signal;HPM_P1;HPM_P2
2021/03/15 00:00:41;;;;;;;31.55;21.90;;;;;;;4.00;79.81;98675.79;128275;1108;23614;-66
2021/03/15 00:03:08;;;;;;;31.70;21.85;;;;;;;3.97;79.99;98668.17;128420;1107;22831;-66
2021/03/15 00:05:55;;;;;;;31.80;21.47;;;;;;;3.90;79.59;98668.28;128223;1107;23401;-65
2021/03/15 00:08:23;;;;;;;32.55;22.55;;;;;;;3.97;79.73;98676.26;128302;1107;22887;-66
2021/03/15 00:10:50;;;;;;;35.95;22.80;;;;;;;3.97;80.04;98678.95;128378;1108;22921;-66
2021/03/15 00:13:19;;;;;;;32.35;21.60;;;;;;;3.96;79.79;98671.92;128197;1107;22826;-66
2021/03/15 00:15:47;;;;;;;34.35;22.55;;;;;;;3.95;80.16;98667.58;128341;1107;22885;-66
2021/03/15 00:18:15;;;;;;;36.10;23.53;;;;;;;3.94;80.25;98674.84;128178;1107;22872;-66
2021/03/15 00:20:43;;;;;;;34.30;22.97;;;;;;;3.96;79.74;98666.53;128327;1109;22850;-66
2021/03/15 00:23:11;;;;;;;36.07;23.10;;;;;;;3.97;79.55;98671.69;128247;1108;22809;-66
2021/03/15 00:25:38;;;;;;;36.90;22.20;;;;;;;3.98;79.70;98676.02;128319;1107;22923;-66
2021/03/15 00:28:07;;;;;;;37.77;22.23;;;;;;;3.99;79.91;98672.27;128239;1108;22909;-65
2021/03/15 00:30:34;;;;;;;33.23;22.17;;;;;;;4.02;79.71;98673.69;128322;1109;22821;-66
2021/03/15 00:33:02;;;;;;;31.85;21.85;;;;;;;4.01;79.94;98678.25;128225;1107;22974;-66
2021/03/15 00:35:30;;;;;;;36.60;22.70;;;;;;;4.02;80.02;98682.59;128368;1108;22817;-66
2021/03/15 00:37:57;;;;;;;38.10;22.83;;;;;;;4.02;80.06;98679.89;128216;1107;22932;-65
2021/03/15 00:40:28;;;;;;;35.37;23.80;;;;;;;4.02;79.81;98679.08;128350;1107;22897;-66
2021/03/15 00:42:56;;;;;;;36.13;22.10;;;;;;;4.02;79.54;98679.89;128175;1108;23479;-66
2021/03/15 00:45:25;;;;;;;36.55;23.50;;;;;;;4.02;79.45;98673.69;128293;1108;22826;-66
2021/03/15 00:47:53;;;;;;;35.83;23.37;;;;;;;4.03;79.72;98676.14;128218;1107;22940;-65
2021/03/15 00:50:32;;;;;;;37.35;22.85;;;;;;;4.03;80.05;98669.94;128340;1107;22805;-66
2021/03/15 00:53:01;;;;;;;40.93;23.97;;;;;;;4.03;79.92;98681.53;128244;1108;22939;-64
2021/03/15 00:55:28;;;;;;;38.90;22.95;;;;;;;4.03;79.24;98680.72;128311;1107;23446;-64
2021/03/15 00:57:56;;;;;;;36.07;22.43;;;;;;;4.03;79.12;98680.72;128181;1108;22929;-65
2021/03/15 01:00:28;;;;;;;37.27;23.17;;;;;;;4.03;79.19;98673.45;128363;1108;23401;-65
2021/03/15 01:04:55;;;;;;;42.00;23.95;;;;;;;4.00;79.45;98659.63;124257;1111;26437;-66
2021/03/15 01:07:27;;;;;;;42.80;25.53;;;;;;;3.98;78.83;98656.34;124121;1111;23205;-66
2021/03/15 01:09:55;;;;;;;43.43;26.23;;;;;;;3.94;79.29;98660.55;124001;1112;23227;-66
2021/03/15 01:12:44;;;;;;;42.05;25.95;;;;;;;3.87;79.28;98652.61;128319;1110;22960;-67
2021/03/15 01:15:12;;;;;;;40.65;25.50;;;;;;;3.85;79.43;98650.15;128142;1111;22888;-65
2021/03/15 01:17:45;;;;;;;36.30;24.05;;;;;;;3.84;79.79;98650.38;128318;1111;22891;-67
2021/03/15 01:20:13;;;;;;;41.15;25.05;;;;;;;3.83;79.58;98651.44;128169;1111;22895;-67
2021/03/15 01:22:41;;;;;;;44.53;25.80;;;;;;;3.83;79.78;98648.73;128355;1111;24438;-65
2021/03/15 01:25:09;;;;;;;49.15;27.05;;;;;;;3.81;80.43;98640.89;128169;1111;22922;-64
2021/03/15 01:27:36;;;;;;;43.70;25.80;;;;;;;3.81;79.92;98635.50;128259;1110;25057;-64
2021/03/15 01:30:08;;;;;;;49.00;25.93;;;;;;;3.80;79.53;98635.73;128183;1111;23725;-64
2021/03/15 01:32:36;;;;;;;45.50;26.05;;;;;;;3.79;80.39;98637.61;128297;1110;24406;-64
2021/03/15 01:35:05;;;;;;;41.25;26.35;;;;;;;3.81;80.50;98631.98;128199;1111;22954;-64
2021/03/15 01:37:32;;;;;;;39.20;25.37;;;;;;;3.79;80.18;98626.83;128322;1111;23835;-64
2021/03/15 01:39:59;;;;;;;44.17;27.33;;;;;;;3.79;80.57;98634.09;128166;1111;24031;-64
2021/03/15 01:42:27;;;;;;;47.63;27.93;;;;;;;3.78;80.50;98638.66;128328;1111;23014;-64
2021/03/15 01:44:54;;;;;;;49.20;28.60;;;;;;;3.79;80.86;98643.00;128182;1111;22861;-64
2021/03/15 01:47:23;;;;;;;43.10;26.35;;;;;;;3.81;80.25;98648.16;128246;1111;22955;-64
2021/03/15 01:49:51;;;;;;;41.53;26.73;;;;;;;3.82;80.20;98649.80;128257;1111;22912;-64
2021/03/15 01:52:20;;;;;;;44.50;27.85;;;;;;;3.82;80.53;98645.23;128299;1111;22828;-64
2021/03/15 01:54:48;;;;;;;45.05;27.40;;;;;;;3.84;80.58;98650.38;128283;1112;23040;-64
2021/03/15 01:57:15;;;;;;;45.75;27.35;;;;;;;3.84;80.75;98651.20;128202;1111;23638;-64
2021/03/15 01:59:43;;;;;;;40.15;26.10;;;;;;;3.87;80.76;98658.00;128336;1111;22862;-64
2021/03/15 02:02:11;;;;;;;37.35;25.15;;;;;;;3.87;81.08;98650.73;128225;1111;22837;-64
2021/03/15 02:04:39;;;;;;;38.93;25.30;;;;;;;3.90;80.40;98657.50;128325;1112;22865;-64
2021/03/15 02:07:25;;;;;;;38.43;25.17;;;;;;;3.90;80.28;98649.42;128197;1111;24492;-64
2021/03/15 02:09:52;;;;;;;43.70;27.07;;;;;;;3.91;80.04;98657.27;128325;1111;22834;-63
2021/03/15 02:12:45;;;;;;;43.50;27.83;;;;;;;3.85;80.71;98646.63;128228;1111;24904;-63
2021/03/15 02:15:15;;;;;;;42.33;26.77;;;;;;;3.93;80.57;98658.91;128268;1111;22865;-64
2021/03/15 02:17:48;;;;;;;44.45;28.80;;;;;;;3.92;80.66;98666.17;128213;1112;22835;-64
2021/03/15 02:20:57;;;;;;;46.90;27.05;;;;;;;3.92;80.66;98671.56;128317;1110;22845;-64
2021/03/15 02:23:31;;;;;;;41.70;26.62;;;;;;;3.93;80.39;98677.77;127865;1115;22864;-64
2021/03/15 02:26:16;;;;;;;45.05;27.75;;;;;;;3.91;79.93;98673.44;126547;1114;24862;-63
2021/03/15 02:28:47;;;;;;;48.20;27.55;;;;;;;3.92;79.84;98674.26;123871;1116;23261;-63
2021/03/15 02:31:14;;;;;;;51.60;28.93;;;;;;;3.92;80.66;98676.95;127955;1114;22945;-64
2021/03/15 02:33:57;;;;;;;43.50;26.90;;;;;;;3.93;80.77;98669.69;127806;1114;23580;-64
2021/03/15 02:36:25;;;;;;;49.10;28.75;;;;;;;3.91;81.06;98668.05;127980;1113;23021;-64
2021/03/15 02:38:53;;;;;;;50.95;29.05;;;;;;;3.91;80.04;98661.84;127894;1114;24231;-64
2021/03/15 02:41:20;;;;;;;47.07;28.97;;;;;;;3.91;80.62;98651.88;127980;1113;23042;-64
2021/03/15 02:43:53;;;;;;;50.23;29.83;;;;;;;3.92;80.84;98660.78;127861;1114;22907;-64
2021/03/15 02:46:22;;;;;;;49.95;30.60;;;;;;;3.94;80.83;98660.55;127982;1115;22904;-65
2021/03/15 02:48:51;;;;;;;50.57;29.33;;;;;;;3.93;80.99;98648.95;127790;1115;22919;-64
2021/03/15 02:51:20;;;;;;;57.63;32.17;;;;;;;3.94;81.21;98647.08;127975;1113;22905;-64
2021/03/15 02:53:48;;;;;;;60.10;32.90;;;;;;;3.93;80.47;98646.26;127973;1111;23527;-64
2021/03/15 02:56:22;;;;;;;60.73;32.50;;;;;;;3.90;80.51;98644.03;128307;1111;23714;-64
2021/03/15 02:58:51;;;;;;;62.40;31.20;;;;;;;3.88;81.06;98640.78;128209;1110;22820;-64
2021/03/15 03:01:19;;;;;;;62.27;32.03;;;;;;;3.85;81.05;98643.94;128300;1110;22875;-64
2021/03/15 03:03:47;;;;;;;57.05;33.50;;;;;;;3.84;80.94;98640.42;128204;1111;27741;-68
2021/03/15 03:06:15;;;;;;;57.35;30.30;;;;;;;3.82;81.09;98636.32;128325;1110;22851;-68
2021/03/15 03:08:44;;;;;;;65.55;33.30;;;;;;;3.81;81.46;98627.42;128186;1111;23656;-68
2021/03/15 03:11:12;;;;;;;56.25;31.30;;;;;;;3.82;81.44;98620.98;128372;1111;22852;-67
2021/03/15 03:13:41;;;;;;;52.60;29.75;;;;;;;3.82;81.50;98615.59;128198;1111;22977;-68
2021/03/15 03:16:09;;;;;;;59.57;31.60;;;;;;;3.84;81.20;98628.83;128317;1110;22889;-68
2021/03/15 03:18:38;;;;;;;56.10;30.53;;;;;;;3.85;81.42;98639.38;128200;1110;24669;-67
2021/03/15 03:21:05;;;;;;;55.75;30.75;;;;;;;3.88;81.31;98635.39;128331;1111;22874;-68
2021/03/15 03:23:34;;;;;;;58.85;33.50;;;;;;;3.86;81.89;98646.40;128241;1110;22906;-67
2021/03/15 03:26:02;;;;;;;66.85;35.30;;;;;;;3.87;81.84;98639.14;128369;1110;23583;-68
2021/03/15 03:28:30;;;;;;;64.33;34.30;;;;;;;3.85;81.88;98650.15;128324;1111;23444;-65
2021/03/15 03:30:58;;;;;;;64.30;33.87;;;;;;;3.83;81.38;98641.48;128176;1110;22889;-65
2021/03/15 03:33:26;;;;;;;62.73;32.90;;;;;;;3.83;81.20;98643.35;128341;1111;22826;-65
2021/03/15 03:35:53;;;;;;;64.50;34.60;;;;;;;3.80;81.91;98636.55;128184;1111;22890;-64
2021/03/15 03:38:39;;;;;;;63.93;33.57;;;;;;;3.81;81.45;98643.58;128292;1111;23048;-64
2021/03/15 03:41:07;;;;;;;62.70;32.33;;;;;;;3.81;81.60;98642.77;128178;1110;22920;-64
2021/03/15 03:43:34;;;;;;;60.00;33.07;;;;;;;3.79;81.92;98648.38;127582;1111;26460;-63
2021/03/15 03:46:03;;;;;;;57.15;32.60;;;;;;;3.81;81.72;98650.84;128152;1110;22859;-64
2021/03/15 03:48:33;;;;;;;65.23;33.63;;;;;;;3.81;82.04;98648.16;128360;1112;22817;-64
2021/03/15 03:51:00;;;;;;;61.57;31.77;;;;;;;3.83;82.60;98664.91;128188;1111;23293;-64
2021/03/15 03:53:37;;;;;;;71.00;36.17;;;;;;;3.83;82.21;98664.91;128378;1111;22892;-64
2021/03/15 03:56:37;;;;;;;72.70;36.45;;;;;;;3.83;82.32;98665.73;128189;1111;22898;-64
2021/03/15 03:59:05;;;;;;;69.20;35.77;;;;;;;3.83;82.87;98662.21;128171;1111;22848;-64
2021/03/15 04:01:38;;;;;;;71.70;37.20;;;;;;;3.84;82.53;98667.37;128186;1111;22849;-64
2021/03/15 04:04:06;;;;;;;75.97;36.60;;;;;;;3.84;82.10;98672.76;128313;1110;23430;-64
2021/03/15 04:06:35;;;;;;;69.20;37.90;;;;;;;3.82;82.36;98666.78;128206;1111;22837;-65
2021/03/15 04:09:12;;;;;;;66.20;35.10;;;;;;;3.82;81.95;98666.78;128331;1111;22860;-65
2021/03/15 04:11:48;;;;;;;64.70;35.65;;;;;;;3.83;82.47;98671.12;128197;1111;23697;-65
2021/03/15 04:14:19;;;;;;;67.20;35.23;;;;;;;3.84;82.70;98680.84;128323;1111;22887;-65
2021/03/15 04:16:46;;;;;;;71.43;37.53;;;;;;;3.83;82.79;98681.89;128239;1110;22853;-65
2021/03/15 04:19:14;;;;;;;63.93;33.87;;;;;;;3.85;82.36;98689.74;128318;1111;22841;-65
2021/03/15 04:21:42;;;;;;;66.75;34.40;;;;;;;3.84;82.49;98685.41;128203;1111;23000;-65
2021/03/15 04:24:09;;;;;;;61.83;33.50;;;;;;;3.83;82.43;98684.59;128309;1111;22898;-65
2021/03/15 04:26:37;;;;;;;66.25;34.75;;;;;;;3.81;82.48;98684.00;128140;1111;22826;-65
2021/03/15 04:29:05;;;;;;;70.80;35.35;;;;;;;3.82;82.63;98679.43;128355;1111;22896;-65
2021/03/15 04:31:33;;;;;;;70.07;35.60;;;;;;;3.82;82.80;98691.03;128165;1112;24061;-65
2021/03/15 04:34:01;;;;;;;74.93;36.93;;;;;;;3.82;82.65;98684.82;128333;1111;22821;-65
2021/03/15 04:36:29;;;;;;;76.50;38.37;;;;;;;3.82;82.74;98693.72;128204;1111;22835;-65
2021/03/15 04:38:57;;;;;;;75.05;37.40;;;;;;;3.84;83.23;98693.49;128283;1112;24914;-65
2021/03/15 04:41:24;;;;;;;73.10;38.40;;;;;;;3.85;83.00;98698.65;128315;1111;23878;-65
2021/03/15 04:43:52;;;;;;;79.55;40.30;;;;;;;3.86;82.97;98702.98;128164;1111;22834;-65
2021/03/15 04:46:19;;;;;;;82.15;41.45;;;;;;;3.86;82.62;98702.98;128309;1110;23821;-65
2021/03/15 04:48:47;;;;;;;80.57;39.73;;;;;;;3.87;82.85;98703.80;128198;1111;22822;-65
2021/03/15 04:51:20;;;;;;;79.53;39.37;;;;;;;3.86;82.74;98705.68;128252;1111;22984;-65
2021/03/15 04:53:48;;;;;;;82.20;38.80;;;;;;;3.88;83.04;98718.92;128196;1111;24339;-65
2021/03/15 04:56:16;;;;;;;88.07;43.80;;;;;;;3.87;83.01;98712.71;128338;1110;22888;-65
2021/03/15 04:58:48;;;;;;;78.50;38.40;;;;;;;3.89;83.25;98707.91;128225;1111;22961;-65
2021/03/15 05:01:16;;;;;;;82.33;39.07;;;;;;;3.89;83.43;98713.30;128301;1111;23022;-68
2021/03/15 05:03:43;;;;;;;86.60;40.90;;;;;;;3.91;82.91;98710.34;128235;1111;22865;-67
2021/03/15 05:06:11;;;;;;;92.33;43.03;;;;;;;3.94;83.36;98709.06;128292;1109;22993;-66
2021/03/15 05:08:46;;;;;;;92.67;45.07;;;;;;;3.95;82.69;98716.09;128206;1109;22851;-65
2021/03/15 05:11:13;;;;;;;86.10;43.35;;;;;;;3.96;83.28;98712.34;128347;1111;22881;-64
2021/03/15 05:13:41;;;;;;;100.53;47.47;;;;;;;3.98;82.82;98716.45;128265;1108;22872;-64
2021/03/15 05:16:08;;;;;;;112.75;55.90;;;;;;;4.00;83.09;98717.04;125967;1109;23004;-64
2021/03/15 05:18:37;;;;;;;117.73;58.27;;;;;;;4.01;83.14;98713.29;128186;1108;22967;-64
2021/03/15 05:21:06;;;;;;;114.50;54.05;;;;;;;4.02;83.18;98717.62;128281;1109;22843;-65
2021/03/15 05:23:34;;;;;;;91.93;45.63;;;;;;;4.03;83.43;98713.87;128195;1111;23883;-65
2021/03/15 05:26:01;;;;;;;108.33;49.97;;;;;;;4.04;83.59;98718.19;128312;1109;22834;-64
2021/03/15 05:28:30;;;;;;;116.50;54.03;;;;;;;4.04;82.91;98715.48;128227;1108;22848;-64
2021/03/15 05:31:00;;;;;;;108.43;50.77;;;;;;;4.05;83.33;98719.83;128332;1109;23657;-65
2021/03/15 05:33:27;;;;;;;92.20;45.40;;;;;;;4.05;83.25;98725.22;128274;1111;22883;-64
2021/03/15 05:35:55;;;;;;;95.20;45.25;;;;;;;4.07;83.30;98724.98;127043;1109;26517;-64
2021/03/15 05:38:23;;;;;;;101.20;46.00;;;;;;;4.07;83.74;98728.50;124176;1109;26463;-64
2021/03/15 05:40:50;;;;;;;88.60;45.20;;;;;;;4.08;84.03;98719.36;128175;1108;22981;-65
2021/03/15 05:43:24;;;;;;;97.63;47.63;;;;;;;4.11;83.37;98720.77;128307;1109;22886;-65
2021/03/15 05:46:06;;;;;;;110.83;51.27;;;;;;;4.13;83.35;98719.48;128254;1109;22821;-65
2021/03/15 05:48:51;;;;;;;109.27;51.30;;;;;;;4.15;83.62;98721.95;128344;1109;22975;-65
2021/03/15 05:51:47;;;;;;;105.63;49.00;;;;;;;4.17;84.04;98725.23;128221;1108;23547;-64
2021/03/15 05:54:52;;;;;;;83.20;41.80;;;;;;;4.21;83.64;98729.89;128337;1109;23977;-65
2021/03/15 05:57:22;;;;;;;85.35;41.50;;;;;;;4.24;82.90;98734.83;128343;1108;23505;-65
2021/03/15 06:00:04;;;;;;;87.20;41.30;;;;;;;4.28;83.58;98734.36;128197;1109;22952;-65
2021/03/15 06:02:50;;;;;;;86.00;42.40;;;;;;;4.26;83.50;98740.80;128336;1109;22956;-65
2021/03/15 06:05:18;;;;;;;87.17;44.43;;;;;;;4.28;83.20;98739.75;128211;1109;22833;-65
2021/03/15 06:07:47;;;;;;;76.30;40.03;;;;;;;4.27;83.52;98741.63;128314;1109;23547;-65
2021/03/15 06:11:03;;;;;;;77.95;40.90;;;;;;;4.27;83.40;98741.63;128191;1109;22970;-65
2021/03/15 06:13:34;;;;;;;80.00;39.83;;;;;;;4.27;83.43;98736.23;128357;1108;22804;-65
2021/03/15 06:16:03;;;;;;;74.43;38.37;;;;;;;4.28;83.30;98748.66;128236;1108;23595;-65
2021/03/15 06:18:30;;;;;;;84.60;42.30;;;;;;;4.28;83.36;98747.84;128332;1109;22901;-65
2021/03/15 06:20:59;;;;;;;81.43;42.20;;;;;;;4.24;83.14;98740.22;128268;1109;22914;-65
2021/03/15 06:23:27;;;;;;;83.20;41.35;;;;;;;4.21;83.45;98743.37;128348;1108;22892;-65
2021/03/15 06:25:55;;;;;;;80.47;41.03;;;;;;;4.21;83.48;98739.86;128260;1108;22963;-64
2021/03/15 06:28:24;;;;;;;86.45;42.55;;;;;;;4.20;83.26;98743.61;128266;1109;22888;-63
2021/03/15 06:30:52;;;;;;;83.70;42.30;;;;;;;4.23;83.78;98743.14;128239;1108;22912;-64
2021/03/15 06:33:20;;;;;;;77.93;39.90;;;;;;;4.25;83.57;98741.86;128367;1109;22938;-63
2021/03/15 06:35:54;;;;;;;82.40;40.50;;;;;;;4.28;83.22;98740.57;128305;1109;22961;-63
2021/03/15 06:38:21;;;;;;;72.47;37.60;;;;;;;4.28;83.72;98737.88;128331;1108;22955;-64
2021/03/15 06:40:59;;;;;;;78.60;39.63;;;;;;;4.32;83.59;98733.66;128305;1108;22875;-64
2021/03/15 06:43:27;;;;;;;80.20;39.85;;;;;;;4.36;83.74;98739.38;128225;1109;22884;-63
2021/03/15 06:45:54;;;;;;;88.20;43.65;;;;;;;4.38;83.70;98738.09;128323;1109;22886;-62
2021/03/15 06:48:22;;;;;;;78.25;42.50;;;;;;;4.40;83.66;98746.77;128218;1108;22931;-63
2021/03/15 06:50:51;;;;;;;86.20;47.10;;;;;;;4.42;83.65;98739.26;128355;1108;23510;-63
2021/03/15 06:53:19;;;;;;;96.20;46.30;;;;;;;4.45;83.85;98738.79;128243;1108;22936;-63
2021/03/15 06:55:52;;;;;;;94.50;46.97;;;;;;;4.48;83.47;98743.69;128240;1109;24007;-63
2021/03/15 06:58:31;;;;;;;112.90;56.85;;;;;;;4.50;83.54;98741.57;128201;1109;22863;-63
2021/03/15 07:01:09;;;;;;;124.73;61.47;;;;;;;4.52;83.49;98750.25;128327;1108;22981;-63
2021/03/15 07:03:37;;;;;;;117.17;54.80;;;;;;;4.53;82.93;98751.08;128219;1107;23583;-63
2021/03/15 07:06:06;;;;;;;100.40;50.77;;;;;;;4.55;83.20;98746.27;128321;1108;22827;-63
2021/03/15 07:08:34;;;;;;;102.00;49.30;;;;;;;4.55;83.51;98748.96;128206;1108;24125;-64
2021/03/15 07:11:20;;;;;;;98.50;47.90;;;;;;;4.47;83.55;98733.16;128290;1109;23688;-63
2021/03/15 07:13:48;;;;;;;95.30;48.75;;;;;;;4.51;83.09;98737.82;128231;1108;22850;-64
2021/03/15 07:16:29;;;;;;;91.10;47.00;;;;;;;4.49;83.70;98739.11;128340;1109;22844;-63
2021/03/15 07:19:04;;;;;;;100.95;50.50;;;;;;;4.48;83.16;98726.68;128219;1109;22926;-64
2021/03/15 07:21:37;;;;;;;115.65;57.50;;;;;;;4.47;83.10;98731.25;128314;1108;23039;-64
2021/03/15 07:24:11;;;;;;;98.07;47.07;;;;;;;4.49;83.53;98731.02;128268;1109;23384;-64
2021/03/15 07:26:44;;;;;;;96.65;52.05;;;;;;;4.48;83.14;98722.11;128341;1109;23521;-63
2021/03/15 07:29:16;;;;;;;94.83;48.20;;;;;;;4.50;83.97;98720.00;128248;1109;22852;-64
2021/03/15 07:31:48;;;;;;;101.75;52.05;;;;;;;4.52;83.19;98723.28;128312;1108;22870;-64
2021/03/15 07:34:20;;;;;;;96.97;48.17;;;;;;;4.54;83.38;98726.56;128226;1108;23333;-64
2021/03/15 07:36:57;;;;;;;96.23;51.77;;;;;;;4.54;83.28;98728.44;128381;1108;22884;-64
2021/03/15 07:39:28;;;;;;;86.40;48.65;;;;;;;4.55;83.49;98722.81;128180;1108;22898;-63
2021/03/15 07:41:58;;;;;;;94.87;46.40;;;;;;;4.59;83.10;98731.25;128426;1108;22939;-63
2021/03/15 07:44:28;;;;;;;89.95;44.30;;;;;;;4.61;83.29;98727.27;128255;1109;22843;-63
2021/03/15 07:47:03;;;;;;;73.45;40.85;;;;;;;4.65;83.64;98732.98;128374;1109;22875;-63
2021/03/15 07:49:39;;;;;;;77.20;42.65;;;;;;;4.67;83.34;98733.56;128256;1109;23096;-63
2021/03/15 07:52:11;;;;;;;75.67;41.60;;;;;;;4.70;82.83;98732.27;128367;1109;23676;-63
2021/03/15 07:54:40;;;;;;;79.75;42.55;;;;;;;4.74;83.10;98728.86;128244;1108;22901;-64
2021/03/15 07:57:19;;;;;;;82.15;43.10;;;;;;;4.76;82.74;98732.11;128425;1109;22847;-63
2021/03/15 07:59:48;;;;;;;88.23;44.97;;;;;;;4.84;83.12;98722.83;128269;1108;22834;-64
2021/03/15 08:02:21;;;;;;;79.65;43.55;;;;;;;4.87;82.93;98725.06;128382;1107;22831;-64
2021/03/15 08:04:50;;;;;;;77.45;44.40;;;;;;;4.89;82.63;98722.94;128239;1109;22917;-64
2021/03/15 08:07:17;;;;;;;82.60;43.50;;;;;;;4.89;82.68;98723.77;128342;1108;23860;-64
2021/03/15 08:09:51;;;;;;;81.95;44.00;;;;;;;4.92;82.91;98725.14;128255;1108;23408;-64
2021/03/15 08:12:19;;;;;;;92.00;46.05;;;;;;;4.94;82.74;98725.72;128448;1109;22933;-64
2021/03/15 08:14:49;;;;;;;101.13;48.73;;;;;;;4.96;82.07;98734.40;128230;1108;22837;-63
2021/03/15 08:17:18;;;;;;;105.33;50.67;;;;;;;4.96;82.07;98731.70;128348;1109;22948;-64
2021/03/15 08:19:47;;;;;;;101.30;49.75;;;;;;;4.96;82.51;98727.13;128300;1109;22858;-63
2021/03/15 08:22:38;;;;;;;87.67;45.23;;;;;;;4.92;82.04;98727.84;128194;1109;22872;-64
2021/03/15 08:25:09;;;;;;;101.25;49.05;;;;;;;4.87;82.12;98733.16;128277;1109;23069;-60
2021/03/15 08:27:40;;;;;;;96.30;51.60;;;;;;;4.79;82.66;98723.55;128364;1109;22871;-63
2021/03/15 08:30:24;;;;;;;105.25;51.20;;;;;;;4.75;82.59;98727.80;128353;1109;23663;-63
2021/03/15 08:32:52;;;;;;;96.95;45.55;;;;;;;4.73;82.33;98732.62;128324;1109;23670;-63
2021/03/15 08:35:20;;;;;;;95.03;45.90;;;;;;;4.72;82.65;98738.25;128311;1108;22890;-64
2021/03/15 08:37:54;;;;;;;96.40;45.93;;;;;;;4.71;82.48;98737.42;128160;1108;22856;-64
2021/03/15 08:40:41;;;;;;;97.10;46.30;;;;;;;4.70;82.81;98738.48;128332;1109;22798;-64
2021/03/15 08:43:17;;;;;;;86.40;44.07;;;;;;;4.66;83.18;98734.62;128230;1108;23482;-63
2021/03/15 08:45:53;;;;;;;81.57;43.00;;;;;;;4.61;82.60;98729.14;128351;1108;22946;-63
2021/03/15 08:48:40;;;;;;;80.60;40.23;;;;;;;4.58;83.13;98727.73;128256;1110;23585;-63
2021/03/15 08:51:12;;;;;;;80.67;39.40;;;;;;;4.60;82.89;98735.59;128281;1108;23910;-63
2021/03/15 08:53:40;;;;;;;75.90;37.45;;;;;;;4.61;83.49;98739.93;128368;1109;22895;-60
2021/03/15 08:56:34;;;;;;;67.40;34.13;;;;;;;4.65;83.34;98735.67;128397;1108;22814;-61
2021/03/15 08:59:04;;;;;;;61.70;33.03;;;;;;;4.71;82.99;98752.80;128340;1108;22907;-62
2021/03/15 09:01:53;;;;;;;69.65;35.90;;;;;;;4.72;83.42;98747.16;128215;1109;22853;-62
2021/03/15 09:04:34;;;;;;;63.80;35.35;;;;;;;4.72;82.99;98738.25;128371;1108;22883;-60
2021/03/15 09:07:02;;;;;;;67.25;35.80;;;;;;;4.72;83.79;98736.37;128178;1108;22906;-63
2021/03/15 09:09:30;;;;;;;71.93;38.30;;;;;;;4.70;82.71;98735.78;128377;1108;24148;-61
2021/03/15 09:11:58;;;;;;;70.05;37.55;;;;;;;4.67;83.22;98738.14;128219;1110;22892;-61
2021/03/15 09:14:27;;;;;;;63.03;34.97;;;;;;;4.65;83.46;98729.45;128376;1107;22822;-62
2021/03/15 09:17:18;;;;;;;57.35;32.45;;;;;;;4.67;83.35;98732.73;128370;1107;22863;-62
2021/03/15 09:19:47;;;;;;;56.75;31.35;;;;;;;4.65;83.55;98724.88;128293;1108;22898;-63
2021/03/15 09:22:27;;;;;;;59.60;31.57;;;;;;;4.66;83.37;98736.50;128357;1108;23270;-63
2021/03/15 09:24:58;;;;;;;59.65;32.15;;;;;;;4.69;83.49;98730.63;128375;1108;24863;-63
2021/03/15 09:27:27;;;;;;;60.47;32.17;;;;;;;4.70;83.44;98727.69;124616;1107;26517;-62
2021/03/15 09:30:13;;;;;;;55.70;30.80;;;;;;;4.70;83.87;98726.88;128190;1106;23374;-63
2021/03/15 09:32:45;;;;;;;62.10;32.90;;;;;;;4.66;83.43;98728.41;128365;1107;23476;-63
2021/03/15 09:35:20;;;;;;;62.90;33.10;;;;;;;4.66;84.06;98728.41;128313;1107;22886;-63
2021/03/15 09:37:49;;;;;;;61.65;32.35;;;;;;;4.65;83.54;98738.38;128339;1107;22835;-63
2021/03/15 09:40:18;;;;;;;65.00;33.57;;;;;;;4.65;83.83;98732.98;128276;1106;22817;-63
2021/03/15 09:42:46;;;;;;;62.20;33.45;;;;;;;4.67;84.11;98727.34;128324;1108;24175;-63
2021/03/15 09:45:34;;;;;;;59.77;31.70;;;;;;;4.70;83.92;98729.57;128177;1107;22903;-61
2021/03/15 09:48:16;;;;;;;69.80;33.23;;;;;;;4.72;84.05;98735.55;128331;1108;23789;-64
2021/03/15 09:50:47;;;;;;;70.17;34.17;;;;;;;4.71;83.84;98737.42;128349;1106;23085;-64
2021/03/15 09:53:17;;;;;;;71.80;38.15;;;;;;;4.70;84.00;98732.27;128363;1107;22904;-64
2021/03/15 09:56:08;;;;;;;74.25;38.75;;;;;;;4.71;84.10;98731.21;128270;1108;22845;-63
2021/03/15 09:58:43;;;;;;;82.97;42.40;;;;;;;4.72;84.12;98730.16;128353;1107;22851;-63
2021/03/15 10:01:22;;;;;;;86.43;42.03;;;;;;;4.68;84.20;98720.89;128403;1108;22962;-64
2021/03/15 10:04:08;;;;;;;83.60;41.70;;;;;;;4.73;84.62;98732.62;128256;1107;22918;-64
2021/03/15 10:06:45;;;;;;;75.55;39.85;;;;;;;4.72;84.41;98733.67;128350;1106;23786;-63
2021/03/15 10:09:31;;;;;;;77.47;39.20;;;;;;;4.70;84.75;98732.27;128234;1108;23157;-63
2021/03/15 10:12:20;;;;;;;74.45;37.15;;;;;;;4.67;84.33;98747.05;128402;1107;22831;-63
2021/03/15 10:15:00;;;;;;;71.20;35.10;;;;;;;4.65;84.65;98738.38;128208;1107;23721;-63
2021/03/15 10:17:47;;;;;;;70.53;36.90;;;;;;;4.66;84.79;98747.28;128333;1107;23906;-63
2021/03/15 10:21:01;;;;;;;70.73;34.50;;;;;;;4.68;84.52;98753.27;128245;1108;23001;-64
2021/03/15 10:23:32;;;;;;;69.70;35.85;;;;;;;4.67;84.49;98749.75;128352;1108;22942;-63
2021/03/15 10:26:04;;;;;;;78.17;38.80;;;;;;;4.68;84.91;98745.17;128208;1107;22882;-64
2021/03/15 10:28:50;;;;;;;75.05;37.95;;;;;;;4.69;84.62;98749.52;128347;1108;23948;-62
2021/03/15 10:31:25;;;;;;;76.65;39.25;;;;;;;4.68;85.09;98739.78;126468;1108;24840;-62
2021/03/15 10:33:53;;;;;;;73.53;36.20;;;;;;;4.69;84.91;98744.12;128370;1107;23544;-63
2021/03/15 10:36:24;;;;;;;61.60;35.55;;;;;;;4.70;84.17;98740.36;128311;1107;22887;-64
2021/03/15 10:39:15;;;;;;;68.85;36.40;;;;;;;4.62;84.59;98734.27;128304;1108;22826;-64
2021/03/15 10:41:43;;;;;;;69.20;37.40;;;;;;;4.55;84.21;98728.20;128258;1108;22911;-64
2021/03/15 10:44:21;;;;;;;70.57;37.17;;;;;;;4.51;85.14;98723.52;128324;1107;23535;-64
2021/03/15 10:46:55;;;;;;;60.93;35.67;;;;;;;4.52;85.11;98725.97;128286;1108;22820;-64
2021/03/15 10:49:26;;;;;;;68.67;36.83;;;;;;;4.53;85.16;98719.52;128290;1108;22888;-64
2021/03/15 10:51:59;;;;;;;65.90;35.87;;;;;;;4.50;85.21;98719.17;128215;1107;22860;-64
2021/03/15 10:54:36;;;;;;;73.07;37.17;;;;;;;4.50;85.55;98719.17;128338;1107;22893;-64
2021/03/15 10:57:18;;;;;;;62.37;35.17;;;;;;;4.44;85.05;98709.36;128238;1106;23660;-64
2021/03/15 10:59:49;;;;;;;69.47;35.90;;;;;;;4.49;85.37;98709.44;127403;1107;23134;-63
2021/03/15 11:02:26;;;;;;;66.97;36.17;;;;;;;4.49;85.43;98712.14;128283;1105;22891;-64
2021/03/15 11:05:02;;;;;;;71.53;36.67;;;;;;;4.47;85.37;98706.19;128355;1108;23153;-64
2021/03/15 11:07:40;;;;;;;63.73;35.05;;;;;;;4.47;85.36;98706.19;128289;1107;22825;-63
2021/03/15 11:10:26;;;;;;;70.70;38.55;;;;;;;4.43;85.66;98702.32;128304;1106;22908;-63
2021/03/15 11:13:01;;;;;;;72.47;38.45;;;;;;;4.42;86.05;98706.89;128177;1108;22895;-63
2021/03/15 11:15:39;;;;;;;72.15;37.40;;;;;;;4.43;86.08;98699.63;128355;1108;22845;-63
2021/03/15 11:18:33;;;;;;;54.53;30.87;;;;;;;4.42;85.19;98688.02;128216;1107;23650;-63
2021/03/15 11:21:11;;;;;;;45.77;25.33;;;;;;;4.42;85.91;98690.72;128300;1107;22898;-63
2021/03/15 11:24:03;;;;;;;39.20;24.45;;;;;;;4.40;85.69;98692.00;128233;1109;22986;-63
2021/03/15 11:26:59;;;;;;;38.30;21.73;;;;;;;4.40;86.50;98686.61;128342;1107;22913;-63
2021/03/15 11:29:42;;;;;;;29.25;17.25;;;;;;;4.41;85.61;98694.47;128319;1107;22953;-63
2021/03/15 11:32:20;;;;;;;29.05;17.90;;;;;;;4.39;85.67;98698.45;128302;1108;22950;-63
2021/03/15 11:34:53;;;;;;;21.20;14.60;;;;;;;4.38;85.58;98684.15;128321;1108;22823;-64
2021/03/15 11:37:25;;;;;;;17.90;10.40;;;;;;;4.36;85.59;98690.83;124842;1107;23112;-62
2021/03/15 11:39:56;;;;;;;15.13;9.73;;;;;;;4.34;85.40;98699.16;128230;1107;23121;-63
2021/03/15 11:42:27;;;;;;;15.87;9.13;;;;;;;4.34;85.56;98699.16;128337;1109;23594;-63
2021/03/15 11:45:04;;;;;;;;;;;;;;;4.35;85.50;98705.37;128269;1108;22972;-63